createdAt,value
2023-01-10T00:00:48.881Z,19.08
2023-01-10T00:03:18.369Z,14.07
2023-01-10T00:05:44.976Z,12.57
2023-01-10T00:08:16.187Z,11.50
2023-01-10T00:10:42.819Z,12.70
2023-01-10T00:13:26.336Z,11.93
2023-01-10T00:15:55.343Z,12.80
2023-01-10T00:18:22.507Z,13.40
2023-01-10T00:20:51.970Z,12.73
2023-01-10T00:23:19.777Z,12.85
2023-01-10T00:25:46.616Z,12.38
2023-01-10T00:28:19.261Z,12.65
2023-01-10T00:31:06.585Z,14.48
2023-01-10T00:33:34.657Z,12.02
2023-01-10T00:36:06.132Z,14.00
2023-01-10T00:38:34.485Z,12.27
2023-01-10T00:41:01.713Z,12.23
2023-01-10T00:43:46.824Z,15.07
2023-01-10T00:46:13.664Z,13.18
2023-01-10T00:48:41.316Z,12.32
2023-01-10T00:51:07.970Z,13.40
2023-01-10T00:53:34.629Z,14.43
2023-01-10T00:56:01.306Z,16.27
2023-01-10T00:58:27.952Z,17.02
2023-01-10T01:00:54.590Z,18.70
2023-01-10T01:03:23.164Z,20.42
2023-01-10T01:05:56.035Z,19.88
2023-01-10T01:08:22.652Z,18.92
2023-01-10T01:10:49.452Z,18.75
2023-01-10T01:13:19.226Z,14.52
2023-01-10T01:15:46.083Z,15.60
2023-01-10T01:18:15.744Z,12.07
2023-01-10T01:20:45.579Z,10.48
2023-01-10T01:23:13.345Z,13.48
2023-01-10T01:25:40.406Z,18.30
2023-01-10T01:28:07.963Z,21.30
2023-01-10T01:30:34.892Z,21.83
2023-01-10T01:33:01.507Z,21.25
2023-01-10T01:35:28.196Z,20.42
2023-01-10T01:37:54.819Z,22.08
2023-01-10T01:40:23.265Z,25.58
2023-01-10T01:42:55.516Z,23.77
2023-01-10T01:45:32.055Z,28.23
2023-01-10T01:47:58.631Z,30.75
2023-01-10T01:50:33.542Z,23.95
2023-01-10T01:55:31.246Z,28.33
2023-01-10T01:58:01.551Z,31.15
2023-01-10T02:00:28.224Z,32.90
2023-01-10T02:03:02.572Z,31.70
2023-01-10T02:07:59.669Z,29.70
2023-01-10T02:10:46.383Z,29.05
2023-01-10T02:13:15.574Z,30.73
2023-01-10T02:15:42.491Z,25.08
2023-01-10T02:18:09.577Z,26.65
2023-01-10T02:21:14.228Z,27.92
2023-01-10T02:24:07.496Z,28.60
2023-01-10T02:26:59.241Z,34.67
2023-01-10T02:29:44.355Z,32.58
2023-01-10T02:33:00.620Z,31.15
2023-01-10T02:36:04.559Z,33.03
2023-01-10T02:38:55.736Z,33.85
2023-01-10T02:41:36.303Z,35.88
2023-01-10T02:44:11.884Z,32.42
2023-01-10T02:46:39.512Z,33.55
2023-01-10T02:49:06.732Z,30.67
2023-01-10T02:51:33.471Z,28.45
2023-01-10T02:54:13.484Z,27.73
2023-01-10T02:56:59.054Z,28.77
2023-01-10T02:59:46.743Z,27.60
2023-01-10T03:02:43.804Z,27.15
2023-01-10T03:05:27.047Z,26.50
2023-01-10T03:08:00.472Z,21.30
2023-01-10T03:10:44.631Z,21.40
2023-01-10T03:13:23.928Z,23.88
2023-01-10T03:15:54.451Z,24.88
2023-01-10T03:18:26.913Z,24.60
2023-01-10T03:20:58.416Z,23.77
2023-01-10T03:23:26.562Z,23.48
2023-01-10T03:25:56.183Z,22.08
2023-01-10T03:28:45.443Z,22.38
2023-01-10T03:31:19.162Z,22.67
2023-01-10T03:33:48.756Z,21.25
2023-01-10T03:37:03.181Z,22.30
2023-01-10T03:39:39.909Z,22.45
2023-01-10T03:42:18.977Z,21.30
2023-01-10T03:45:04.648Z,23.98
2023-01-10T03:47:41.173Z,21.88
2023-01-10T03:50:13.307Z,23.33
2023-01-10T03:52:42.115Z,21.05
2023-01-10T03:55:13.095Z,21.77
2023-01-10T03:57:42.857Z,22.95
2023-01-10T04:00:11.787Z,21.83
2023-01-10T04:02:38.753Z,22.48
2023-01-10T04:05:06.432Z,23.17
2023-01-10T04:07:33.087Z,21.42
2023-01-10T04:09:59.791Z,19.63
2023-01-10T04:12:27.474Z,21.98
2023-01-10T04:14:54.315Z,22.13
2023-01-10T04:17:20.936Z,19.40
2023-01-10T04:19:50.327Z,20.60
2023-01-10T04:22:16.936Z,19.75
2023-01-10T04:24:44.188Z,19.55
2023-01-10T04:27:11.615Z,18.02
2023-01-10T04:29:38.224Z,17.90
2023-01-10T04:32:05.163Z,16.60
2023-01-10T04:34:31.777Z,15.75
2023-01-10T04:36:58.466Z,18.38
2023-01-10T04:39:25.183Z,15.52
2023-01-10T04:41:51.807Z,14.02
2023-01-10T04:44:18.422Z,13.10
2023-01-10T04:46:45.413Z,14.65
2023-01-10T04:49:12.184Z,14.40
2023-01-10T04:51:38.880Z,11.82
2023-01-10T04:54:05.576Z,14.80
2023-01-10T04:56:32.283Z,14.20
2023-01-10T04:58:59.072Z,12.75
2023-01-10T05:01:26.483Z,13.32
2023-01-10T05:03:55.175Z,12.45
2023-01-10T05:06:24.092Z,13.50
2023-01-10T05:08:50.884Z,11.13
2023-01-10T05:11:17.586Z,11.43
2023-01-10T05:13:45.487Z,12.15
2023-01-10T05:16:13.778Z,11.25
2023-01-10T05:18:40.514Z,9.98
2023-01-10T05:21:09.679Z,10.82
2023-01-10T05:23:36.898Z,9.30
2023-01-10T05:26:12.907Z,10.95
2023-01-10T05:28:39.957Z,9.43
2023-01-10T05:31:08.240Z,8.57
2023-01-10T05:33:35.108Z,10.77
2023-01-10T05:36:06.520Z,7.63
2023-01-10T05:38:33.865Z,9.60
2023-01-10T05:41:00.754Z,9.48
2023-01-10T05:43:28.178Z,9.63
2023-01-10T05:45:57.818Z,8.57
2023-01-10T05:48:24.527Z,8.75
2023-01-10T05:50:52.016Z,8.60
2023-01-10T05:53:20.158Z,7.90
2023-01-10T05:55:54.679Z,6.80
2023-01-10T05:58:21.595Z,8.50
2023-01-10T06:00:48.237Z,9.10
2023-01-10T06:03:15.161Z,8.93
2023-01-10T06:05:42.234Z,9.50
2023-01-10T06:08:10.025Z,11.43
2023-01-10T06:10:36.692Z,9.40
2023-01-10T06:13:05.099Z,12.80
2023-01-10T06:15:33.314Z,16.17
2023-01-10T06:17:59.955Z,13.20
2023-01-10T06:20:26.794Z,11.32
2023-01-10T06:22:54.137Z,11.50
2023-01-10T06:25:20.982Z,16.63
2023-01-10T06:27:47.685Z,12.40
2023-01-10T06:30:15.059Z,11.90
2023-01-10T06:32:42.420Z,10.98
2023-01-10T06:35:10.086Z,10.30
2023-01-10T06:37:37.124Z,11.55
2023-01-10T06:40:04.815Z,10.93
2023-01-10T06:42:31.503Z,12.73
2023-01-10T06:44:58.112Z,9.80
2023-01-10T06:47:25.051Z,9.88
2023-01-10T06:49:52.215Z,12.57
2023-01-10T06:52:18.863Z,11.90
2023-01-10T06:54:45.532Z,12.35
2023-01-10T06:57:12.175Z,12.70
2023-01-10T06:59:38.785Z,11.32
2023-01-10T07:02:05.555Z,10.15
2023-01-10T07:04:32.302Z,11.10
2023-01-10T07:06:59.183Z,10.13
2023-01-10T07:09:25.795Z,9.50
2023-01-10T07:11:53.024Z,10.00
2023-01-10T07:14:19.907Z,10.30
2023-01-10T07:16:46.565Z,9.25
2023-01-10T07:19:17.489Z,9.15
2023-01-10T07:21:44.718Z,9.57
2023-01-10T07:24:11.507Z,11.90
2023-01-10T07:26:38.293Z,10.38
2023-01-10T07:29:05.272Z,10.20
2023-01-10T07:31:31.972Z,10.43
2023-01-10T07:33:58.673Z,10.18
2023-01-10T07:36:25.383Z,11.82
2023-01-10T07:38:52.440Z,11.82
2023-01-10T07:41:19.101Z,11.43
2023-01-10T07:43:45.790Z,10.70
2023-01-10T07:46:12.639Z,12.98
2023-01-10T07:48:41.684Z,12.38
2023-01-10T07:51:08.796Z,12.10
2023-01-10T07:53:35.472Z,10.80
2023-01-10T07:56:03.544Z,11.77
2023-01-10T07:58:30.699Z,11.50
2023-01-10T08:01:02.459Z,10.20
2023-01-10T08:03:30.185Z,9.32
2023-01-10T08:06:01.226Z,9.55
2023-01-10T08:08:28.491Z,9.32
2023-01-10T08:10:57.681Z,11.27
2023-01-10T08:13:24.622Z,11.43
2023-01-10T08:15:52.369Z,11.25
2023-01-10T08:18:20.416Z,12.93
2023-01-10T08:20:49.478Z,13.60
2023-01-10T08:23:16.730Z,13.18
2023-01-10T08:25:44.057Z,12.88
2023-01-10T08:28:11.280Z,11.52
2023-01-10T08:30:38.375Z,11.60
2023-01-10T08:33:07.361Z,12.38
2023-01-10T08:35:43.702Z,14.02
2023-01-10T08:38:11.194Z,17.38
2023-01-10T08:40:38.059Z,21.45
2023-01-10T08:43:07.081Z,15.38
2023-01-10T08:45:34.706Z,15.73
2023-01-10T08:48:01.786Z,16.05
2023-01-10T08:50:28.413Z,15.13
2023-01-10T08:53:00.808Z,15.20
2023-01-10T08:55:28.754Z,15.52
2023-01-10T08:57:55.391Z,18.60
2023-01-10T09:00:22.577Z,17.50
2023-01-10T09:02:49.296Z,17.67
2023-01-10T09:05:27.107Z,20.48
2023-01-10T09:07:59.840Z,21.08
2023-01-10T09:10:27.228Z,21.00
2023-01-10T09:12:56.668Z,23.67
2023-01-10T09:15:26.469Z,17.08
2023-01-10T09:17:54.841Z,18.83
2023-01-10T09:20:22.824Z,20.35
2023-01-10T09:22:49.515Z,24.75
2023-01-10T09:25:16.339Z,20.08
2023-01-10T09:27:43.325Z,17.20
2023-01-10T09:30:10.631Z,19.70
2023-01-10T09:32:37.449Z,21.55
2023-01-10T09:35:04.710Z,20.73
2023-01-10T09:37:33.602Z,22.27
2023-01-10T09:40:00.611Z,22.42
2023-01-10T09:42:51.974Z,19.42
2023-01-10T09:45:43.463Z,28.70
2023-01-10T09:48:24.045Z,18.38
2023-01-10T09:51:09.760Z,21.63
2023-01-10T09:53:41.602Z,21.35
2023-01-10T09:56:09.634Z,22.00
2023-01-10T09:58:38.315Z,21.38
2023-01-10T10:01:10.659Z,19.02
2023-01-10T10:03:46.259Z,21.38
2023-01-10T10:06:14.491Z,19.73
2023-01-10T10:08:46.567Z,20.65
2023-01-10T10:11:25.546Z,24.13
2023-01-10T10:14:21.004Z,23.35
2023-01-10T10:16:47.584Z,26.35
2023-01-10T10:19:52.865Z,22.13
2023-01-10T10:22:47.064Z,21.73
2023-01-10T10:25:28.472Z,20.27
2023-01-10T10:27:55.045Z,19.90
2023-01-10T10:30:35.990Z,22.52
2023-01-10T10:33:27.183Z,23.42
2023-01-10T10:36:03.832Z,22.98
2023-01-10T10:38:34.985Z,23.73
2023-01-10T10:41:01.874Z,24.27
2023-01-10T10:43:36.915Z,23.98
2023-01-10T10:46:13.801Z,23.80
2023-01-10T10:48:44.039Z,22.98
2023-01-10T10:51:19.425Z,23.75
2023-01-10T10:53:47.383Z,24.55
2023-01-10T10:56:17.855Z,23.73
2023-01-10T10:58:48.175Z,26.77
2023-01-10T11:01:16.345Z,24.17
2023-01-10T11:03:51.409Z,21.90
2023-01-10T11:06:20.107Z,23.33
2023-01-10T11:08:49.892Z,26.35
2023-01-10T11:11:33.990Z,27.42
2023-01-10T11:14:04.076Z,24.98
2023-01-10T11:16:33.668Z,26.60
2023-01-10T11:19:24.695Z,24.88
2023-01-10T11:22:01.664Z,24.63
2023-01-10T11:24:34.353Z,25.20
2023-01-10T11:27:22.001Z,25.15
2023-01-10T11:29:51.488Z,26.60
2023-01-10T11:32:22.326Z,26.27
2023-01-10T11:34:55.760Z,25.20
2023-01-10T11:37:31.523Z,28.50
2023-01-10T11:40:14.770Z,26.95
2023-01-10T11:42:41.703Z,25.90
2023-01-10T11:45:17.194Z,28.70
2023-01-10T11:47:47.710Z,27.13
2023-01-10T11:50:21.718Z,26.92
2023-01-10T11:52:49.864Z,29.47
2023-01-10T11:55:28.446Z,27.15
2023-01-10T11:58:12.619Z,29.23
2023-01-10T12:00:49.968Z,28.27
2023-01-10T12:03:26.657Z,29.75
2023-01-10T12:05:56.912Z,28.58
2023-01-10T12:08:38.300Z,29.13
2023-01-10T12:11:11.327Z,28.52
2023-01-10T12:13:51.425Z,27.80
2023-01-10T12:16:30.980Z,29.75
2023-01-10T12:19:00.628Z,29.95
2023-01-10T12:21:30.415Z,29.35
2023-01-10T12:24:04.891Z,31.13
2023-01-10T12:26:33.516Z,33.60
2023-01-10T12:29:08.566Z,30.90
2023-01-10T12:31:38.973Z,31.70
2023-01-10T12:34:16.704Z,29.50
2023-01-10T12:36:49.107Z,28.80
2023-01-10T12:39:20.514Z,28.15
2023-01-10T12:42:11.224Z,27.17
2023-01-10T12:44:37.876Z,28.77
2023-01-10T12:47:16.146Z,27.00
2023-01-10T12:50:05.881Z,26.95
2023-01-10T12:52:45.443Z,26.38
2023-01-10T12:55:42.671Z,28.15
2023-01-10T12:58:17.968Z,26.95
2023-01-10T13:00:49.461Z,27.30
2023-01-10T13:03:20.697Z,26.85
2023-01-10T13:05:49.565Z,26.15
2023-01-10T13:08:20.194Z,26.05
2023-01-10T13:10:49.654Z,27.08
2023-01-10T13:13:20.917Z,27.92
2023-01-10T13:15:57.073Z,27.58
2023-01-10T13:18:27.263Z,27.95
2023-01-10T13:21:08.782Z,28.38
2023-01-10T13:23:46.448Z,26.13
2023-01-10T13:26:13.138Z,25.08
2023-01-10T13:28:52.449Z,26.17
2023-01-10T13:31:33.270Z,25.42
2023-01-10T13:34:20.239Z,24.55
2023-01-10T13:36:56.577Z,23.23
2023-01-10T13:39:36.954Z,23.33
2023-01-10T13:42:22.146Z,24.65
2023-01-10T13:45:01.249Z,25.73
2023-01-10T13:47:40.242Z,26.73
2023-01-10T13:50:25.482Z,23.50
2023-01-10T13:53:15.626Z,24.98
2023-01-10T13:55:42.581Z,25.20
2023-01-10T13:58:21.009Z,24.75
2023-01-10T14:01:11.360Z,25.45
2023-01-10T14:03:43.874Z,26.80
2023-01-10T14:06:37.687Z,25.85
2023-01-10T14:09:12.218Z,29.55
2023-01-10T14:11:45.066Z,28.10
2023-01-10T14:14:32.427Z,24.20
2023-01-10T14:17:18.984Z,26.27
2023-01-10T14:19:48.319Z,25.17
2023-01-10T14:22:33.723Z,25.33
2023-01-10T14:25:02.809Z,24.55
2023-01-10T14:27:44.727Z,25.50
2023-01-10T14:30:24.473Z,25.73
2023-01-10T14:32:57.615Z,25.50
2023-01-10T14:35:36.113Z,26.45
2023-01-10T14:38:04.015Z,28.60
2023-01-10T14:40:43.352Z,39.42
2023-01-10T14:43:15.752Z,44.28
2023-01-10T14:46:05.969Z,44.75
2023-01-10T14:48:39.543Z,31.20
2023-01-10T14:51:10.396Z,35.85
2023-01-10T14:53:37.027Z,32.67
2023-01-10T14:56:03.906Z,29.45
2023-01-10T14:58:30.537Z,29.67
2023-01-10T15:00:57.682Z,44.55
2023-01-10T15:03:28.235Z,27.45
2023-01-10T15:05:57.197Z,31.48
2023-01-10T15:08:30.101Z,31.42
2023-01-10T15:11:03.815Z,23.23
2023-01-10T15:13:34.103Z,39.20
2023-01-10T15:16:01.250Z,31.20
2023-01-10T15:18:39.302Z,27.08
2023-01-10T15:21:06.603Z,30.80
2023-01-10T15:23:42.188Z,21.45
2023-01-10T15:29:02.606Z,28.88
2023-01-10T15:33:56.779Z,20.70
2023-01-10T15:36:26.993Z,22.50
2023-01-10T15:38:54.132Z,21.65
2023-01-10T15:41:23.671Z,20.58
2023-01-10T15:43:51.938Z,22.63
2023-01-10T15:46:21.990Z,23.75
2023-01-10T15:49:25.162Z,23.67
2023-01-10T15:51:52.486Z,22.75
2023-01-10T15:54:19.341Z,23.48
2023-01-10T15:56:52.231Z,23.95
2023-01-10T15:59:32.743Z,21.80
2023-01-10T16:01:59.724Z,22.90
2023-01-10T16:04:27.020Z,23.35
2023-01-10T16:07:05.584Z,20.33
2023-01-10T16:09:32.539Z,20.95
2023-01-10T16:12:17.653Z,20.05
2023-01-10T16:14:44.282Z,19.17
2023-01-10T16:17:12.423Z,20.33
2023-01-10T16:19:39.112Z,19.77
2023-01-10T16:22:06.164Z,20.27
2023-01-10T16:24:35.542Z,21.35
2023-01-10T16:27:05.940Z,18.98
2023-01-10T16:29:33.563Z,17.45
2023-01-10T16:32:00.364Z,18.83
2023-01-10T16:34:27.182Z,18.10
2023-01-10T16:36:53.901Z,19.17
2023-01-10T16:39:23.222Z,20.75
2023-01-10T16:42:09.161Z,19.00
2023-01-10T16:44:36.366Z,18.67
2023-01-10T16:47:06.609Z,19.35
2023-01-10T16:49:33.804Z,17.70
2023-01-10T16:52:00.460Z,18.58
2023-01-10T16:54:28.077Z,17.40
2023-01-10T16:56:55.292Z,19.88
2023-01-10T16:59:21.929Z,16.95
2023-01-10T17:01:55.006Z,16.35
2023-01-10T17:04:29.698Z,16.38
2023-01-10T17:06:56.978Z,18.48
2023-01-10T17:09:29.102Z,16.73
2023-01-10T17:12:02.128Z,16.58
2023-01-10T17:14:34.543Z,16.98
2023-01-10T17:17:04.510Z,16.75
2023-01-10T17:19:31.247Z,20.02
2023-01-10T17:21:57.919Z,19.23
2023-01-10T17:24:24.651Z,17.15
2023-01-10T17:26:51.409Z,18.33
2023-01-10T17:29:18.030Z,18.35
2023-01-10T17:31:44.815Z,18.67
2023-01-10T17:34:14.370Z,20.15
2023-01-10T17:36:41.935Z,18.60
2023-01-10T17:39:08.597Z,20.85
2023-01-10T17:41:35.715Z,17.88
2023-01-10T17:44:02.340Z,17.05
2023-01-10T17:46:29.053Z,17.30
2023-01-10T17:48:55.674Z,16.92
2023-01-10T17:51:24.773Z,18.45
2023-01-10T17:53:54.017Z,18.27
2023-01-10T17:56:21.072Z,18.33
2023-01-10T17:58:48.049Z,18.40
2023-01-10T18:01:22.895Z,18.50
2023-01-10T18:03:51.582Z,19.50
2023-01-10T18:06:24.141Z,17.30
2023-01-10T18:08:51.983Z,19.20
2023-01-10T18:11:18.709Z,19.42
2023-01-10T18:13:46.257Z,17.02
2023-01-10T18:16:13.548Z,17.50
2023-01-10T18:18:40.138Z,16.42
2023-01-10T18:21:15.477Z,16.60
2023-01-10T18:23:42.130Z,17.02
2023-01-10T18:26:11.747Z,15.45
2023-01-10T18:28:43.939Z,17.27
2023-01-10T18:31:20.763Z,15.65
2023-01-10T18:33:48.140Z,14.25
2023-01-10T18:36:20.287Z,17.23
2023-01-10T18:38:48.213Z,20.85
2023-01-10T18:41:21.622Z,19.85
2023-01-10T18:43:48.453Z,24.45
2023-01-10T18:46:19.307Z,19.98
2023-01-10T18:48:46.932Z,23.45
2023-01-10T18:51:14.580Z,26.50
2023-01-10T18:53:42.404Z,20.88
2023-01-10T18:56:10.230Z,23.00
2023-01-10T18:58:39.558Z,19.38
2023-01-10T19:01:10.398Z,22.33
2023-01-10T19:03:37.808Z,18.60
2023-01-10T19:06:06.292Z,24.42
2023-01-10T19:08:33.069Z,20.90
2023-01-10T19:11:12.925Z,18.08
2023-01-10T19:13:44.598Z,17.45
2023-01-10T19:16:26.306Z,20.38
2023-01-10T19:18:55.121Z,17.70
2023-01-10T19:21:22.812Z,17.50
2023-01-10T19:23:51.930Z,14.63
2023-01-10T19:26:18.795Z,15.55
2023-01-10T19:28:45.787Z,15.10
2023-01-10T19:31:17.600Z,16.23
2023-01-10T19:33:45.956Z,13.48
2023-01-10T19:36:12.845Z,13.25
2023-01-10T19:38:39.519Z,13.55
2023-01-10T19:41:06.564Z,12.95
2023-01-10T19:43:33.874Z,10.23
2023-01-10T19:46:08.404Z,11.40
2023-01-10T19:48:38.310Z,10.85
2023-01-10T19:51:10.879Z,11.05
2023-01-10T19:53:41.877Z,9.27
2023-01-10T19:56:10.075Z,10.15
2023-01-10T19:58:38.159Z,11.80
2023-01-10T20:01:13.824Z,9.75
2023-01-10T20:03:42.053Z,8.88
2023-01-10T20:06:17.067Z,8.75
2023-01-10T20:08:44.823Z,9.32
2023-01-10T20:11:11.998Z,9.20
2023-01-10T20:13:44.615Z,9.07
2023-01-10T20:16:19.892Z,8.20
2023-01-10T20:18:47.863Z,7.38
2023-01-10T20:21:17.041Z,6.65
2023-01-10T20:23:44.484Z,7.20
2023-01-10T20:26:17.076Z,7.50
2023-01-10T20:28:45.259Z,7.80
2023-01-10T20:31:18.479Z,6.00
2023-01-10T20:33:45.196Z,6.00
2023-01-10T20:36:15.311Z,6.68
2023-01-10T20:38:42.508Z,7.03
2023-01-10T20:41:14.614Z,6.45
2023-01-10T20:43:41.921Z,6.32
2023-01-10T20:46:14.350Z,6.32
2023-01-10T20:48:41.860Z,5.68
2023-01-10T20:51:11.838Z,5.18
2023-01-10T20:53:38.526Z,5.68
2023-01-10T20:56:35.681Z,5.93
2023-01-10T20:59:02.910Z,4.72
2023-01-10T21:01:35.158Z,6.10
2023-01-10T21:04:04.704Z,4.60
2023-01-10T21:06:32.013Z,4.78
2023-01-10T21:08:58.948Z,5.43
2023-01-10T21:11:25.705Z,5.85
2023-01-10T21:13:52.423Z,4.28
2023-01-10T21:16:21.860Z,5.35
2023-01-10T21:18:48.683Z,4.40
2023-01-10T21:21:18.521Z,4.35
2023-01-10T21:23:45.161Z,4.70
2023-01-10T21:26:14.735Z,3.75
2023-01-10T21:28:46.363Z,7.20
2023-01-10T21:31:15.480Z,4.00
2023-01-10T21:33:42.290Z,3.70
2023-01-10T21:36:09.699Z,4.50
2023-01-10T21:38:36.455Z,4.18
2023-01-10T21:41:09.549Z,4.00
2023-01-10T21:43:36.430Z,3.90
2023-01-10T21:46:03.407Z,4.20
2023-01-10T21:48:30.265Z,3.90
2023-01-10T21:50:57.983Z,4.18
2023-01-10T21:53:25.983Z,3.20
2023-01-10T21:55:52.632Z,3.47
2023-01-10T21:58:26.599Z,3.67
2023-01-10T22:00:58.702Z,3.33
2023-01-10T22:03:25.910Z,3.58
2023-01-10T22:05:53.508Z,2.35
2023-01-10T22:08:20.554Z,3.10
2023-01-10T22:10:47.414Z,2.70
2023-01-10T22:13:14.289Z,2.58
2023-01-10T22:15:41.194Z,2.25
2023-01-10T22:18:08.501Z,1.98
2023-01-10T22:20:35.152Z,2.72
2023-01-10T22:23:01.909Z,2.72
2023-01-10T22:25:28.607Z,2.47
2023-01-10T22:27:55.698Z,2.70
2023-01-10T22:30:22.604Z,2.33
2023-01-10T22:32:49.228Z,2.53
2023-01-10T22:35:15.920Z,3.03
2023-01-10T22:37:42.843Z,3.50
2023-01-10T22:40:10.286Z,3.78
2023-01-10T22:42:36.927Z,3.35
2023-01-10T22:45:03.794Z,3.35
2023-01-10T22:47:30.669Z,3.90
2023-01-10T22:49:57.252Z,3.58
2023-01-10T22:52:23.848Z,3.40
2023-01-10T22:54:50.478Z,3.50
2023-01-10T22:57:17.125Z,2.97
2023-01-10T22:59:43.704Z,3.78
2023-01-10T23:02:10.390Z,3.60
2023-01-10T23:04:37.069Z,4.72
2023-01-10T23:07:03.706Z,4.50
2023-01-10T23:09:31.801Z,3.97
2023-01-10T23:11:58.628Z,3.60
2023-01-10T23:14:25.266Z,4.03
2023-01-10T23:16:51.931Z,3.42
2023-01-10T23:19:18.586Z,3.20
2023-01-10T23:21:45.177Z,3.63
2023-01-10T23:24:14.758Z,3.33
2023-01-10T23:26:41.361Z,3.88
2023-01-10T23:29:08.109Z,3.97
2023-01-10T23:31:34.734Z,3.65
2023-01-10T23:34:01.371Z,3.35
2023-01-10T23:36:28.039Z,4.22
2023-01-10T23:38:54.726Z,4.03
2023-01-10T23:41:46.877Z,4.35
2023-01-10T23:44:13.637Z,4.32
2023-01-10T23:46:40.274Z,3.90
2023-01-10T23:49:06.974Z,5.55
2023-01-10T23:51:33.620Z,3.95
2023-01-10T23:54:00.261Z,3.83
2023-01-10T23:56:26.874Z,3.95
2023-01-10T23:58:53.485Z,3.90
